createdAt,value
2017-12-31T00:00:41.872Z,11.60
2017-12-31T00:01:42.578Z,11.50
2017-12-31T00:02:43.285Z,11.52
2017-12-31T00:03:43.993Z,11.59
2017-12-31T00:04:44.714Z,11.57
2017-12-31T00:05:45.425Z,11.60
2017-12-31T00:06:46.135Z,11.51
2017-12-31T00:07:46.844Z,11.50
2017-12-31T00:08:47.553Z,11.52
2017-12-31T00:09:48.262Z,11.51
2017-12-31T00:10:48.971Z,11.52
2017-12-31T00:11:49.682Z,11.48
2017-12-31T00:12:50.387Z,11.41
2017-12-31T00:13:51.095Z,11.54
2017-12-31T00:14:51.804Z,11.43
2017-12-31T00:15:52.512Z,11.44
2017-12-31T00:16:53.217Z,11.37
2017-12-31T00:17:53.925Z,11.40
2017-12-31T00:18:54.633Z,11.43
2017-12-31T00:19:55.341Z,11.36
2017-12-31T00:20:56.051Z,11.41
2017-12-31T00:21:56.758Z,11.32
2017-12-31T00:22:57.478Z,11.41
2017-12-31T00:23:58.185Z,11.41
2017-12-31T00:24:58.906Z,11.35
2017-12-31T00:25:59.629Z,11.43
2017-12-31T00:27:00.337Z,11.44
2017-12-31T00:28:01.048Z,11.40
2017-12-31T00:29:01.754Z,11.41
2017-12-31T00:30:02.462Z,11.43
2017-12-31T00:31:03.168Z,11.40
2017-12-31T00:32:03.877Z,11.40
2017-12-31T00:33:04.587Z,11.43
2017-12-31T00:34:05.294Z,11.44
2017-12-31T00:35:06.002Z,11.27
2017-12-31T00:36:06.709Z,11.40
2017-12-31T00:37:07.419Z,11.33
2017-12-31T00:38:08.126Z,11.33
2017-12-31T00:39:08.834Z,11.32
2017-12-31T00:40:09.556Z,11.33
2017-12-31T00:41:10.278Z,11.33
2017-12-31T00:42:10.989Z,11.33
2017-12-31T00:43:11.698Z,11.33
2017-12-31T00:44:12.409Z,11.33
2017-12-31T00:45:13.119Z,11.33
2017-12-31T00:46:13.839Z,11.30
2017-12-31T00:47:14.563Z,11.30
2017-12-31T00:48:15.271Z,11.37
2017-12-31T00:49:15.999Z,11.32
2017-12-31T00:50:16.703Z,11.40
2017-12-31T00:51:17.412Z,11.32
2017-12-31T00:52:18.133Z,11.32
2017-12-31T00:53:18.843Z,11.37
2017-12-31T00:54:19.552Z,11.26
2017-12-31T00:55:20.260Z,11.32
2017-12-31T00:56:20.968Z,11.33
2017-12-31T00:57:21.676Z,11.29
2017-12-31T00:58:22.387Z,11.30
2017-12-31T00:59:23.093Z,11.33
2017-12-31T01:00:23.803Z,11.33
2017-12-31T01:01:24.515Z,11.32
2017-12-31T01:02:25.238Z,11.29
2017-12-31T01:03:25.945Z,11.29
2017-12-31T01:04:26.654Z,11.25
2017-12-31T01:05:27.384Z,11.29
2017-12-31T01:06:28.086Z,11.33
2017-12-31T01:07:28.810Z,11.27
2017-12-31T01:08:29.521Z,11.30
2017-12-31T01:09:30.231Z,11.29
2017-12-31T01:10:30.942Z,11.23
2017-12-31T01:11:31.650Z,11.26
2017-12-31T01:12:32.359Z,11.23
2017-12-31T01:13:33.068Z,11.23
2017-12-31T01:14:33.777Z,11.30
2017-12-31T01:15:34.484Z,11.19
2017-12-31T01:16:35.194Z,11.18
2017-12-31T01:17:35.903Z,11.17
2017-12-31T01:18:36.611Z,11.12
2017-12-31T01:19:37.333Z,11.14
2017-12-31T01:20:38.041Z,11.17
2017-12-31T01:21:38.749Z,11.18
2017-12-31T01:22:39.458Z,11.18
2017-12-31T01:23:40.182Z,11.17
2017-12-31T01:24:40.903Z,11.25
2017-12-31T01:25:41.625Z,11.23
2017-12-31T01:26:42.334Z,11.22
2017-12-31T01:27:43.044Z,11.19
2017-12-31T01:28:43.753Z,11.29
2017-12-31T01:29:44.463Z,11.29
2017-12-31T01:30:45.173Z,11.26
2017-12-31T01:31:45.886Z,11.18
2017-12-31T01:32:46.606Z,11.26
2017-12-31T01:33:47.326Z,11.19
2017-12-31T01:34:48.035Z,11.15
2017-12-31T01:35:48.744Z,11.19
2017-12-31T01:36:49.458Z,11.19
2017-12-31T01:37:50.162Z,11.22
2017-12-31T01:38:50.870Z,11.29
2017-12-31T01:39:51.578Z,11.23
2017-12-31T01:40:52.286Z,11.23
2017-12-31T01:41:52.995Z,11.19
2017-12-31T01:42:53.705Z,11.30
2017-12-31T01:43:54.411Z,11.23
2017-12-31T01:44:55.121Z,11.23
2017-12-31T01:45:55.831Z,11.26
2017-12-31T01:46:56.542Z,11.27
2017-12-31T01:47:57.256Z,11.29
2017-12-31T01:48:57.963Z,11.17
2017-12-31T01:49:58.672Z,11.29
2017-12-31T01:50:59.380Z,11.15
2017-12-31T01:52:00.091Z,11.27
2017-12-31T01:53:00.811Z,11.18
2017-12-31T01:54:01.533Z,11.27
2017-12-31T01:55:02.242Z,11.27
2017-12-31T01:56:02.950Z,11.29
2017-12-31T01:57:03.660Z,11.29
2017-12-31T01:58:04.368Z,11.29
2017-12-31T01:59:05.079Z,11.17
2017-12-31T02:00:05.789Z,11.23
2017-12-31T02:01:06.499Z,11.18
2017-12-31T02:02:07.206Z,11.19
2017-12-31T02:03:07.913Z,11.23
2017-12-31T02:04:08.620Z,11.26
2017-12-31T02:05:09.331Z,11.12
2017-12-31T02:06:10.053Z,11.12
2017-12-31T02:07:10.763Z,11.12
2017-12-31T02:08:11.469Z,11.08
2017-12-31T02:09:12.178Z,11.08
2017-12-31T02:10:12.885Z,11.07
2017-12-31T02:11:13.607Z,11.05
2017-12-31T02:12:14.317Z,11.05
2017-12-31T02:13:15.027Z,10.97
2017-12-31T02:14:15.736Z,10.90
2017-12-31T02:15:16.444Z,10.99
2017-12-31T02:16:17.153Z,10.89
2017-12-31T02:17:17.873Z,10.97
2017-12-31T02:18:18.594Z,11.07
2017-12-31T02:19:19.301Z,10.94
2017-12-31T02:20:20.027Z,10.93
2017-12-31T02:21:20.732Z,10.89
2017-12-31T02:22:21.440Z,10.92
2017-12-31T02:23:22.147Z,10.94
2017-12-31T02:24:22.855Z,10.92
2017-12-31T02:25:23.608Z,10.86
2017-12-31T02:26:24.271Z,10.87
2017-12-31T02:27:24.994Z,10.79
2017-12-31T02:28:25.703Z,10.82
2017-12-31T02:29:26.411Z,10.76
2017-12-31T02:30:27.135Z,10.75
2017-12-31T02:31:27.855Z,10.72
2017-12-31T02:32:28.561Z,10.81
2017-12-31T02:33:29.280Z,10.75
2017-12-31T02:34:29.988Z,10.75
2017-12-31T02:35:30.696Z,10.63
2017-12-31T02:36:31.417Z,10.71
2017-12-31T02:37:32.125Z,10.68
2017-12-31T02:38:32.833Z,10.63
2017-12-31T02:39:33.543Z,10.72
2017-12-31T02:40:34.268Z,10.56
2017-12-31T02:41:34.971Z,10.63
2017-12-31T02:42:35.678Z,10.54
2017-12-31T02:43:36.384Z,10.49
2017-12-31T02:44:37.093Z,10.59
2017-12-31T02:45:37.803Z,10.53
2017-12-31T02:46:38.512Z,10.59
2017-12-31T02:47:39.232Z,10.56
2017-12-31T02:48:39.941Z,10.59
2017-12-31T02:49:40.653Z,10.54
2017-12-31T02:50:41.360Z,10.49
2017-12-31T02:51:42.070Z,10.51
2017-12-31T02:52:42.779Z,10.44
2017-12-31T02:53:43.539Z,10.46
2017-12-31T02:54:44.198Z,10.40
2017-12-31T02:55:44.906Z,10.41
2017-12-31T02:56:45.621Z,10.42
2017-12-31T02:57:46.325Z,10.46
2017-12-31T02:58:47.044Z,10.37
2017-12-31T02:59:47.751Z,10.41
2017-12-31T03:00:48.459Z,10.40
2017-12-31T03:01:49.181Z,10.33
2017-12-31T03:02:49.891Z,10.28
2017-12-31T03:03:50.611Z,10.40
2017-12-31T03:04:51.334Z,10.40
2017-12-31T03:05:52.041Z,10.35
2017-12-31T03:06:52.749Z,10.35
2017-12-31T03:07:53.456Z,10.26
2017-12-31T03:08:54.164Z,10.37
2017-12-31T03:09:54.886Z,10.30
2017-12-31T03:10:55.609Z,10.26
2017-12-31T03:11:56.316Z,10.28
2017-12-31T03:12:57.025Z,10.25
2017-12-31T03:13:57.733Z,10.31
2017-12-31T03:14:58.458Z,10.30
2017-12-31T03:15:59.167Z,10.25
2017-12-31T03:16:59.875Z,10.22
2017-12-31T03:18:00.597Z,10.28
2017-12-31T03:19:01.307Z,10.20
2017-12-31T03:20:02.017Z,10.15
2017-12-31T03:21:02.724Z,10.23
2017-12-31T03:22:03.432Z,10.20
2017-12-31T03:23:04.139Z,10.22
2017-12-31T03:24:04.847Z,10.19
2017-12-31T03:25:05.555Z,10.16
2017-12-31T03:26:06.278Z,10.16
2017-12-31T03:27:06.998Z,10.19
2017-12-31T03:28:07.706Z,10.15
2017-12-31T03:29:08.414Z,10.12
2017-12-31T03:30:09.124Z,10.15
2017-12-31T03:31:09.835Z,10.19
2017-12-31T03:32:10.554Z,10.19
2017-12-31T03:33:11.263Z,10.13
2017-12-31T03:34:11.973Z,10.23
2017-12-31T03:35:12.684Z,10.16
2017-12-31T03:36:13.393Z,10.17
2017-12-31T03:37:14.102Z,10.12
2017-12-31T03:38:14.816Z,10.15
2017-12-31T03:39:15.519Z,10.17
2017-12-31T03:40:16.225Z,10.23
2017-12-31T03:41:16.933Z,10.17
2017-12-31T03:42:17.640Z,10.16
2017-12-31T03:43:18.347Z,10.15
2017-12-31T03:44:19.060Z,10.16
2017-12-31T03:45:19.763Z,10.19
2017-12-31T03:46:20.484Z,10.12
2017-12-31T03:47:21.194Z,10.17
2017-12-31T03:48:21.902Z,10.16
2017-12-31T03:49:22.612Z,10.12
2017-12-31T03:50:23.319Z,10.12
2017-12-31T03:51:24.044Z,10.12
2017-12-31T03:52:24.766Z,10.12
2017-12-31T03:53:25.475Z,10.09
2017-12-31T03:54:26.183Z,10.10
2017-12-31T03:55:26.892Z,10.09
2017-12-31T03:56:27.616Z,10.09
2017-12-31T03:57:28.324Z,9.99
2017-12-31T03:58:29.034Z,10.02
2017-12-31T03:59:29.740Z,9.98
2017-12-31T04:00:30.448Z,10.04
2017-12-31T04:01:31.155Z,9.98
2017-12-31T04:02:31.861Z,9.99
2017-12-31T04:03:32.572Z,10.02
2017-12-31T04:04:33.277Z,9.98
2017-12-31T04:05:33.987Z,10.04
2017-12-31T04:06:34.693Z,9.94
2017-12-31T04:07:35.400Z,10.02
2017-12-31T04:08:36.121Z,9.99
2017-12-31T04:09:36.829Z,10.01
2017-12-31T04:10:37.536Z,9.95
2017-12-31T04:11:38.243Z,9.89
2017-12-31T04:12:38.966Z,9.99
2017-12-31T04:13:39.675Z,9.98
2017-12-31T04:14:40.383Z,9.89
2017-12-31T04:15:41.091Z,9.97
2017-12-31T04:16:41.799Z,9.87
2017-12-31T04:17:42.507Z,9.97
2017-12-31T04:18:43.228Z,9.82
2017-12-31T04:19:43.950Z,9.94
2017-12-31T04:20:44.657Z,9.99
2017-12-31T04:21:45.364Z,9.86
2017-12-31T04:22:46.070Z,9.77
2017-12-31T04:23:46.791Z,9.87
2017-12-31T04:24:47.499Z,9.80
2017-12-31T04:25:48.221Z,9.82
2017-12-31T04:26:48.927Z,9.83
2017-12-31T04:27:49.637Z,9.91
2017-12-31T04:28:50.345Z,9.82
2017-12-31T04:29:51.053Z,9.94
2017-12-31T04:30:51.759Z,9.84
2017-12-31T04:31:52.468Z,9.82
2017-12-31T04:32:53.172Z,9.87
2017-12-31T04:33:53.894Z,9.83
2017-12-31T04:34:54.602Z,9.87
2017-12-31T04:35:55.311Z,9.84
2017-12-31T04:36:56.019Z,9.87
2017-12-31T04:37:56.727Z,9.80
2017-12-31T04:38:57.437Z,9.94
2017-12-31T04:39:58.159Z,9.83
2017-12-31T04:40:58.865Z,9.87
2017-12-31T04:41:59.572Z,9.83
2017-12-31T04:43:00.294Z,9.82
2017-12-31T04:44:01.004Z,9.89
2017-12-31T04:45:01.722Z,9.91
2017-12-31T04:46:02.428Z,9.91
2017-12-31T04:47:03.135Z,9.87
2017-12-31T04:48:03.855Z,9.79
2017-12-31T04:49:04.578Z,9.82
2017-12-31T04:50:05.299Z,9.83
2017-12-31T04:51:06.006Z,9.84
2017-12-31T04:52:06.730Z,9.87
2017-12-31T04:53:07.447Z,9.84
2017-12-31T04:54:08.156Z,9.86
2017-12-31T04:55:08.876Z,9.92
2017-12-31T04:56:09.583Z,9.84
2017-12-31T04:57:10.292Z,9.79
2017-12-31T04:58:10.997Z,9.82
2017-12-31T04:59:11.703Z,9.83
2017-12-31T05:00:12.409Z,9.92
2017-12-31T05:01:13.136Z,9.89
2017-12-31T05:02:13.837Z,9.91
2017-12-31T05:03:14.543Z,9.84
2017-12-31T05:04:15.265Z,9.80
2017-12-31T05:05:15.973Z,9.83
2017-12-31T05:06:16.683Z,9.86
2017-12-31T05:07:17.453Z,9.89
2017-12-31T05:08:18.106Z,9.84
2017-12-31T05:09:18.824Z,9.86
2017-12-31T05:10:19.533Z,9.89
2017-12-31T05:11:20.240Z,9.92
2017-12-31T05:12:20.946Z,9.87
2017-12-31T05:13:21.651Z,9.92
2017-12-31T05:14:22.359Z,9.98
2017-12-31T05:15:23.067Z,10.01
2017-12-31T05:16:23.774Z,9.92
2017-12-31T05:17:24.499Z,9.98
2017-12-31T05:18:25.217Z,9.98
2017-12-31T05:19:25.922Z,9.97
2017-12-31T05:20:26.629Z,9.95
2017-12-31T05:21:27.336Z,9.99
2017-12-31T05:22:28.045Z,10.01
2017-12-31T05:23:28.753Z,10.02
2017-12-31T05:24:29.460Z,9.99
2017-12-31T05:25:30.171Z,10.04
2017-12-31T05:26:30.890Z,10.16
2017-12-31T05:27:31.612Z,10.15
2017-12-31T05:28:32.318Z,10.12
2017-12-31T05:29:33.039Z,10.17
2017-12-31T05:30:33.745Z,10.15
2017-12-31T05:31:34.454Z,10.23
2017-12-31T05:32:35.163Z,10.26
2017-12-31T05:33:35.871Z,10.22
2017-12-31T05:34:36.578Z,10.34
2017-12-31T05:35:37.285Z,10.33
2017-12-31T05:36:37.994Z,10.34
2017-12-31T05:37:38.700Z,10.44
2017-12-31T05:38:39.407Z,10.48
2017-12-31T05:39:40.115Z,10.44
2017-12-31T05:40:40.823Z,10.56
2017-12-31T05:41:41.531Z,10.56
2017-12-31T05:42:42.237Z,10.57
2017-12-31T05:43:42.947Z,10.54
2017-12-31T05:44:43.668Z,10.71
2017-12-31T05:45:44.373Z,10.61
2017-12-31T05:46:45.083Z,10.68
2017-12-31T05:47:45.788Z,10.68
2017-12-31T05:48:46.495Z,10.82
2017-12-31T05:49:47.216Z,10.78
2017-12-31T05:50:47.926Z,10.84
2017-12-31T05:51:48.629Z,10.86
2017-12-31T05:52:49.348Z,10.90
2017-12-31T05:53:50.056Z,10.96
2017-12-31T05:54:50.766Z,10.90
2017-12-31T05:55:51.487Z,10.94
2017-12-31T05:56:52.206Z,11.07
2017-12-31T05:57:52.913Z,11.10
2017-12-31T05:58:53.621Z,11.14
2017-12-31T05:59:54.345Z,11.15
2017-12-31T06:00:55.062Z,11.15
2017-12-31T06:01:55.768Z,11.19
2017-12-31T06:02:56.478Z,11.32
2017-12-31T06:03:57.181Z,11.30
2017-12-31T06:04:57.891Z,11.35
2017-12-31T06:05:58.608Z,11.40
2017-12-31T06:06:59.318Z,11.45
2017-12-31T06:08:00.040Z,11.44
2017-12-31T06:09:00.748Z,11.36
2017-12-31T06:10:01.457Z,11.43
2017-12-31T06:11:02.177Z,11.43
2017-12-31T06:12:02.883Z,11.51
2017-12-31T06:13:03.590Z,11.55
2017-12-31T06:14:04.308Z,11.48
2017-12-31T06:15:05.032Z,11.52
2017-12-31T06:16:05.751Z,11.52
2017-12-31T06:17:06.459Z,11.51
2017-12-31T06:18:07.165Z,11.51
2017-12-31T06:19:07.872Z,11.52
2017-12-31T06:20:08.576Z,11.70
2017-12-31T06:21:09.283Z,11.52
2017-12-31T06:22:10.003Z,11.57
2017-12-31T06:23:10.710Z,11.54
2017-12-31T06:24:11.431Z,11.55
2017-12-31T06:25:12.140Z,11.65
2017-12-31T06:26:12.848Z,11.62
2017-12-31T06:27:13.558Z,11.57
2017-12-31T06:28:14.271Z,11.66
2017-12-31T06:29:14.979Z,11.62
2017-12-31T06:30:15.682Z,11.63
2017-12-31T06:31:16.389Z,11.68
2017-12-31T06:32:17.096Z,11.70
2017-12-31T06:33:17.818Z,11.70
2017-12-31T06:34:18.524Z,11.70
2017-12-31T06:35:19.233Z,11.66
2017-12-31T06:36:19.942Z,11.70
2017-12-31T06:37:20.648Z,11.78
2017-12-31T06:38:21.366Z,11.78
2017-12-31T06:39:22.074Z,11.69
2017-12-31T06:40:22.781Z,11.68
2017-12-31T06:41:23.489Z,11.73
2017-12-31T06:42:24.195Z,11.69
2017-12-31T06:43:24.904Z,11.78
2017-12-31T06:44:25.612Z,11.78
2017-12-31T06:45:26.318Z,11.81
2017-12-31T06:46:27.024Z,11.78
2017-12-31T06:47:27.730Z,11.81
2017-12-31T06:48:28.437Z,11.84
2017-12-31T06:49:29.144Z,11.78
2017-12-31T06:50:29.867Z,11.77
2017-12-31T06:51:30.577Z,11.80
2017-12-31T06:52:31.294Z,11.77
2017-12-31T06:53:32.003Z,11.72
2017-12-31T06:54:32.722Z,11.72
2017-12-31T06:55:33.429Z,11.77
2017-12-31T06:56:34.142Z,11.69
2017-12-31T06:57:34.843Z,11.81
2017-12-31T06:58:35.550Z,11.75
2017-12-31T06:59:36.257Z,11.77
2017-12-31T07:00:36.966Z,11.81
2017-12-31T07:01:37.689Z,11.87
2017-12-31T07:02:38.409Z,11.78
2017-12-31T07:03:39.117Z,11.88
2017-12-31T07:04:39.826Z,11.84
2017-12-31T07:05:40.534Z,11.88
2017-12-31T07:06:41.241Z,11.88
2017-12-31T07:07:41.948Z,11.87
2017-12-31T07:08:42.657Z,11.83
2017-12-31T07:09:43.363Z,11.88
2017-12-31T07:10:44.071Z,11.83
2017-12-31T07:11:44.793Z,11.91
2017-12-31T07:12:45.503Z,11.91
2017-12-31T07:13:46.221Z,11.97
2017-12-31T07:14:46.944Z,11.88
2017-12-31T07:15:47.653Z,11.94
2017-12-31T07:16:48.374Z,11.94
2017-12-31T07:17:49.083Z,11.91
2017-12-31T07:18:49.805Z,12.06
2017-12-31T07:19:50.529Z,11.94
2017-12-31T07:20:51.253Z,11.95
2017-12-31T07:21:51.961Z,11.99
2017-12-31T07:22:52.670Z,11.87
2017-12-31T07:23:53.392Z,11.95
2017-12-31T07:24:54.101Z,11.94
2017-12-31T07:25:54.810Z,11.83
2017-12-31T07:26:55.519Z,11.87
2017-12-31T07:27:56.243Z,11.99
2017-12-31T07:28:56.953Z,12.02
2017-12-31T07:29:57.662Z,12.06
2017-12-31T07:30:58.373Z,11.99
2017-12-31T07:31:59.094Z,11.97
2017-12-31T07:32:59.818Z,12.02
2017-12-31T07:34:00.529Z,12.00
2017-12-31T07:35:01.240Z,12.07
2017-12-31T07:36:01.950Z,12.10
2017-12-31T07:37:02.658Z,12.09
2017-12-31T07:38:03.366Z,12.07
2017-12-31T07:39:04.076Z,12.03
2017-12-31T07:40:04.788Z,12.09
2017-12-31T07:41:05.494Z,12.15
2017-12-31T07:42:06.200Z,12.07
2017-12-31T07:43:06.908Z,12.18
2017-12-31T07:44:07.617Z,12.10
2017-12-31T07:45:08.339Z,12.09
2017-12-31T07:46:09.048Z,12.15
2017-12-31T07:47:09.755Z,12.09
2017-12-31T07:48:10.483Z,12.00
2017-12-31T07:49:11.187Z,11.97
2017-12-31T07:50:11.894Z,11.97
2017-12-31T07:51:12.602Z,11.91
2017-12-31T07:52:13.353Z,11.95
2017-12-31T07:53:14.021Z,11.99
2017-12-31T07:54:14.728Z,11.88
2017-12-31T07:55:15.437Z,11.95
2017-12-31T07:56:16.157Z,11.94
2017-12-31T07:57:16.867Z,11.95
2017-12-31T07:58:17.574Z,12.06
2017-12-31T07:59:18.285Z,12.18
2017-12-31T08:00:18.995Z,12.18
2017-12-31T08:01:19.705Z,12.18
2017-12-31T08:02:20.418Z,12.18
2017-12-31T08:03:21.130Z,12.13
2017-12-31T08:04:21.852Z,12.17
2017-12-31T08:05:22.576Z,12.13
2017-12-31T08:06:23.286Z,12.17
2017-12-31T08:07:23.997Z,12.20
2017-12-31T08:08:24.708Z,12.20
2017-12-31T08:09:25.418Z,12.22
2017-12-31T08:10:26.127Z,12.20
2017-12-31T08:11:26.837Z,12.17
2017-12-31T08:12:27.547Z,12.18
2017-12-31T08:13:28.269Z,12.17
2017-12-31T08:14:28.982Z,12.25
2017-12-31T08:15:29.691Z,12.10
2017-12-31T08:16:30.400Z,12.17
2017-12-31T08:17:31.115Z,12.09
2017-12-31T08:18:31.827Z,12.06
2017-12-31T08:19:32.538Z,12.06
2017-12-31T08:20:33.263Z,12.06
2017-12-31T08:21:33.972Z,12.02
2017-12-31T08:22:34.684Z,11.95
2017-12-31T08:23:35.647Z,11.87
2017-12-31T08:24:36.358Z,11.94
2017-12-31T08:25:37.070Z,11.94
2017-12-31T08:26:37.795Z,11.86
2017-12-31T08:27:38.502Z,11.90
2017-12-31T08:28:39.463Z,12.02
2017-12-31T08:30:55.392Z,11.88
2017-12-31T08:31:56.103Z,11.94
2017-12-31T08:32:56.813Z,11.88
2017-12-31T08:33:57.524Z,11.83
2017-12-31T08:34:58.234Z,11.83
2017-12-31T08:35:58.945Z,11.81
2017-12-31T08:36:59.669Z,11.84
2017-12-31T08:38:00.381Z,11.88
2017-12-31T08:39:01.090Z,11.81
2017-12-31T08:40:01.803Z,11.80
2017-12-31T08:41:02.515Z,11.78
2017-12-31T08:42:03.227Z,11.70
2017-12-31T08:43:03.951Z,11.70
2017-12-31T08:44:04.663Z,11.80
2017-12-31T08:45:05.390Z,11.78
2017-12-31T08:46:06.099Z,11.80
2017-12-31T08:47:06.811Z,11.84
2017-12-31T08:48:07.522Z,11.84
2017-12-31T08:49:08.249Z,11.77
2017-12-31T08:50:08.956Z,11.75
2017-12-31T08:51:09.681Z,11.75
2017-12-31T08:52:10.392Z,11.72
2017-12-31T08:53:11.104Z,11.81
2017-12-31T08:54:11.817Z,11.77
2017-12-31T08:55:12.525Z,11.77
2017-12-31T08:56:13.235Z,11.78
2017-12-31T08:57:13.945Z,11.73
2017-12-31T08:58:14.672Z,11.63
2017-12-31T08:59:15.382Z,11.77
2017-12-31T09:00:16.091Z,11.77
2017-12-31T09:01:16.804Z,11.80
2017-12-31T09:02:17.516Z,11.73
2017-12-31T09:03:18.230Z,11.88
2017-12-31T09:04:18.954Z,11.86
2017-12-31T09:05:19.680Z,11.77
2017-12-31T09:06:20.391Z,11.81
2017-12-31T09:07:21.101Z,11.80
2017-12-31T09:08:21.811Z,11.77
2017-12-31T09:09:22.522Z,11.70
2017-12-31T09:10:23.231Z,11.78
2017-12-31T09:11:23.944Z,11.75
2017-12-31T09:12:24.670Z,11.81
2017-12-31T09:13:25.394Z,11.77
2017-12-31T09:14:26.120Z,11.81
2017-12-31T09:15:26.833Z,11.87
2017-12-31T09:16:27.544Z,11.86
2017-12-31T09:17:28.257Z,11.83
2017-12-31T09:18:28.969Z,11.80
2017-12-31T09:19:29.695Z,11.78
2017-12-31T09:20:30.405Z,11.86
2017-12-31T09:21:31.129Z,11.86
2017-12-31T09:22:31.844Z,11.84
2017-12-31T09:23:32.550Z,11.95
2017-12-31T09:24:33.282Z,11.94
2017-12-31T09:25:33.990Z,11.91
2017-12-31T09:26:34.714Z,11.94
2017-12-31T09:27:35.425Z,11.95
2017-12-31T09:28:36.135Z,12.00
2017-12-31T09:29:36.845Z,12.10
2017-12-31T09:30:37.557Z,12.12
2017-12-31T09:31:38.270Z,12.06
2017-12-31T09:32:38.987Z,12.07
2017-12-31T09:33:39.693Z,12.09
2017-12-31T09:34:40.406Z,12.13
2017-12-31T09:35:41.117Z,12.18
2017-12-31T09:36:41.843Z,12.18
2017-12-31T09:37:42.567Z,12.17
2017-12-31T09:38:43.278Z,12.21
2017-12-31T09:39:43.988Z,12.18
2017-12-31T09:40:44.698Z,12.21
2017-12-31T09:41:45.421Z,12.28
2017-12-31T09:42:46.148Z,12.25
2017-12-31T09:43:46.874Z,12.31
2017-12-31T09:44:47.587Z,12.39
2017-12-31T09:45:48.308Z,12.46
2017-12-31T09:46:49.019Z,12.50
2017-12-31T09:47:49.729Z,12.31
2017-12-31T09:48:50.445Z,12.43
2017-12-31T09:49:51.167Z,12.37
2017-12-31T09:50:51.877Z,12.42
2017-12-31T09:51:52.590Z,12.46
2017-12-31T09:52:53.301Z,12.53
2017-12-31T09:53:54.032Z,12.46
2017-12-31T09:54:54.750Z,12.45
2017-12-31T09:55:55.462Z,12.50
2017-12-31T09:56:56.173Z,12.42
2017-12-31T09:57:56.886Z,12.42
2017-12-31T09:58:57.611Z,12.42
2017-12-31T09:59:58.323Z,12.39
2017-12-31T10:00:59.035Z,12.35
2017-12-31T10:01:59.747Z,12.37
2017-12-31T10:03:00.458Z,12.29
2017-12-31T10:04:01.168Z,12.36
2017-12-31T10:05:01.879Z,12.37
2017-12-31T10:06:02.603Z,12.35
2017-12-31T10:07:03.326Z,12.25
2017-12-31T10:08:04.037Z,12.28
2017-12-31T10:09:04.748Z,12.36
2017-12-31T10:10:05.459Z,12.36
2017-12-31T10:11:06.167Z,12.28
2017-12-31T10:12:06.879Z,12.42
2017-12-31T10:13:07.594Z,12.22
2017-12-31T10:14:08.305Z,12.40
2017-12-31T10:15:09.016Z,12.40
2017-12-31T10:16:09.728Z,12.49
2017-12-31T10:17:10.448Z,12.47
2017-12-31T10:18:11.159Z,12.45
2017-12-31T10:19:11.876Z,12.53
2017-12-31T10:20:12.583Z,12.54
2017-12-31T10:21:13.309Z,12.68
2017-12-31T10:22:14.026Z,12.70
2017-12-31T10:23:14.734Z,12.65
2017-12-31T10:24:15.458Z,12.64
2017-12-31T10:25:16.170Z,12.58
2017-12-31T10:26:16.881Z,12.60
2017-12-31T10:27:17.606Z,12.72
2017-12-31T10:28:18.317Z,12.75
2017-12-31T10:29:19.043Z,12.68
2017-12-31T10:30:19.779Z,12.72
2017-12-31T10:31:20.479Z,12.70
2017-12-31T10:32:21.221Z,12.73
2017-12-31T10:33:21.945Z,12.62
2017-12-31T10:34:22.671Z,12.73
2017-12-31T10:35:23.384Z,12.78
2017-12-31T10:36:24.108Z,12.75
2017-12-31T10:37:24.820Z,12.79
2017-12-31T10:38:25.530Z,12.72
2017-12-31T10:39:26.242Z,12.72
2017-12-31T10:40:26.954Z,12.78
2017-12-31T10:41:27.679Z,12.78
2017-12-31T10:42:28.391Z,12.93
2017-12-31T10:43:29.104Z,12.93
2017-12-31T10:44:29.817Z,13.03
2017-12-31T10:45:30.563Z,12.91
2017-12-31T10:46:31.289Z,12.97
2017-12-31T10:47:32.005Z,12.98
2017-12-31T10:48:32.719Z,13.03
2017-12-31T10:49:33.430Z,13.03
2017-12-31T10:50:34.142Z,13.11
2017-12-31T10:51:34.854Z,13.15
2017-12-31T10:52:35.567Z,13.22
2017-12-31T10:53:36.281Z,13.28
2017-12-31T10:54:36.994Z,13.38
2017-12-31T10:55:37.709Z,13.39
2017-12-31T10:56:38.426Z,13.52
2017-12-31T10:57:39.141Z,13.53
2017-12-31T10:58:39.856Z,13.44
2017-12-31T10:59:40.580Z,13.54
2017-12-31T11:00:41.309Z,13.46
2017-12-31T11:01:42.022Z,13.53
2017-12-31T11:02:42.741Z,13.56
2017-12-31T11:03:43.447Z,13.57
2017-12-31T11:04:44.163Z,13.52
2017-12-31T11:05:44.876Z,13.44
2017-12-31T11:06:45.589Z,13.49
2017-12-31T11:07:46.303Z,13.60
2017-12-31T11:08:47.018Z,13.62
2017-12-31T11:09:47.733Z,13.59
2017-12-31T11:10:48.448Z,13.65
2017-12-31T11:11:49.163Z,13.62
2017-12-31T11:12:49.878Z,13.62
2017-12-31T11:13:50.593Z,13.65
2017-12-31T11:14:51.308Z,13.74
2017-12-31T11:15:52.037Z,13.65
2017-12-31T11:16:52.751Z,13.68
2017-12-31T11:17:53.479Z,13.74
2017-12-31T11:18:54.194Z,13.79
2017-12-31T11:19:54.910Z,13.71
2017-12-31T11:20:55.645Z,13.75
2017-12-31T11:21:56.337Z,13.79
2017-12-31T11:22:57.050Z,13.79
2017-12-31T11:23:57.762Z,13.63
2017-12-31T11:24:58.475Z,13.72
2017-12-31T11:25:59.187Z,13.77
2017-12-31T11:26:59.901Z,13.75
2017-12-31T11:28:00.634Z,13.74
2017-12-31T11:29:01.350Z,13.70
2017-12-31T11:30:02.055Z,13.75
2017-12-31T11:31:02.769Z,13.74
2017-12-31T11:32:03.482Z,13.78
2017-12-31T11:33:04.197Z,13.78
2017-12-31T11:34:04.924Z,13.78
2017-12-31T11:35:05.637Z,13.83
2017-12-31T11:36:06.351Z,13.83
2017-12-31T11:37:07.067Z,13.90
2017-12-31T11:38:07.778Z,13.85
2017-12-31T11:39:08.508Z,13.79
2017-12-31T11:40:09.237Z,13.90
2017-12-31T11:41:09.951Z,13.87
2017-12-31T11:42:10.666Z,13.90
2017-12-31T11:43:11.380Z,14.08
2017-12-31T11:44:12.095Z,14.10
2017-12-31T11:45:12.814Z,14.10
2017-12-31T11:46:13.523Z,14.10
2017-12-31T11:47:14.236Z,14.12
2017-12-31T11:48:14.951Z,14.10
2017-12-31T11:49:15.667Z,14.11
2017-12-31T11:50:16.381Z,14.11
2017-12-31T11:51:17.096Z,14.08
2017-12-31T11:52:17.811Z,14.17
2017-12-31T11:53:18.534Z,14.12
2017-12-31T11:54:19.243Z,14.28
2017-12-31T11:55:19.982Z,14.48
2017-12-31T11:56:20.675Z,14.47
2017-12-31T11:57:21.389Z,14.51
2017-12-31T11:58:22.103Z,14.59
2017-12-31T11:59:22.820Z,14.50
2017-12-31T12:00:23.551Z,14.51
2017-12-31T12:01:24.266Z,14.48
2017-12-31T12:02:24.980Z,14.48
2017-12-31T12:03:25.694Z,14.45
2017-12-31T12:04:26.415Z,14.41
2017-12-31T12:05:27.125Z,14.44
2017-12-31T12:06:27.842Z,14.41
2017-12-31T12:07:28.558Z,14.53
2017-12-31T12:08:29.275Z,14.53
2017-12-31T12:09:30.005Z,14.37
2017-12-31T12:10:30.718Z,14.43
2017-12-31T12:11:31.448Z,14.32
2017-12-31T12:12:32.163Z,14.29
2017-12-31T12:13:32.878Z,14.26
2017-12-31T12:14:33.590Z,14.26
2017-12-31T12:15:34.317Z,14.22
2017-12-31T12:16:35.030Z,14.23
2017-12-31T12:17:35.742Z,14.23
2017-12-31T12:18:36.453Z,14.28
2017-12-31T12:19:37.181Z,14.22
2017-12-31T12:20:37.893Z,14.25
2017-12-31T12:21:38.620Z,14.23
2017-12-31T12:22:39.333Z,14.11
2017-12-31T12:23:40.044Z,14.12
2017-12-31T12:24:40.758Z,14.26
2017-12-31T12:25:41.470Z,14.23
2017-12-31T12:26:42.185Z,14.26
2017-12-31T12:27:42.919Z,14.26
2017-12-31T12:28:43.635Z,14.29
2017-12-31T12:29:44.346Z,14.29
2017-12-31T12:30:45.074Z,14.32
2017-12-31T12:31:45.786Z,14.28
2017-12-31T12:32:46.498Z,14.30
2017-12-31T12:33:47.210Z,14.32
2017-12-31T12:34:47.923Z,14.29
2017-12-31T12:35:48.636Z,14.29
2017-12-31T12:36:49.350Z,14.35
2017-12-31T12:37:50.061Z,14.36
2017-12-31T12:38:50.773Z,14.40
2017-12-31T12:39:51.487Z,14.28
2017-12-31T12:40:52.214Z,14.33
2017-12-31T12:41:52.927Z,14.36
2017-12-31T12:42:53.640Z,14.28
2017-12-31T12:43:54.354Z,14.35
2017-12-31T12:44:55.066Z,14.28
2017-12-31T12:45:55.778Z,14.37
2017-12-31T12:46:56.502Z,14.36
2017-12-31T12:47:57.213Z,14.41
2017-12-31T12:48:57.927Z,14.36
2017-12-31T12:49:58.652Z,14.35
2017-12-31T12:50:59.363Z,14.37
2017-12-31T12:52:00.082Z,14.41
2017-12-31T12:53:00.786Z,14.43
2017-12-31T12:54:01.497Z,14.40
2017-12-31T12:55:02.211Z,14.41
2017-12-31T12:56:02.937Z,14.44
2017-12-31T12:57:03.688Z,14.44
2017-12-31T12:58:04.399Z,14.44
2017-12-31T12:59:05.112Z,14.41
2017-12-31T13:00:05.824Z,14.44
2017-12-31T13:01:06.550Z,14.44
2017-12-31T13:02:07.263Z,14.44
2017-12-31T13:03:07.977Z,14.44
2017-12-31T13:04:08.707Z,14.51
2017-12-31T13:05:09.417Z,14.43
2017-12-31T13:06:10.130Z,14.43